sensor_id;sensor_type;location;lat;lon;timestamp;temperature;humidity
21275;DHT22;36472;52.170;20.884;2023-02-08T00:01:41;23.70;33.50
21275;DHT22;36472;52.170;20.884;2023-02-08T00:04:10;23.70;33.30
21275;DHT22;36472;52.170;20.884;2023-02-08T00:06:39;23.70;33.20
21275;DHT22;36472;52.170;20.884;2023-02-08T00:09:09;23.70;33.20
21275;DHT22;36472;52.170;20.884;2023-02-08T00:11:38;23.70;33.20
21275;DHT22;36472;52.170;20.884;2023-02-08T00:14:09;23.70;33.30
21275;DHT22;36472;52.170;20.884;2023-02-08T00:16:38;23.70;33.20
21275;DHT22;36472;52.170;20.884;2023-02-08T00:19:07;23.70;33.30
21275;DHT22;36472;52.170;20.884;2023-02-08T00:21:36;23.70;33.40
21275;DHT22;36472;52.170;20.884;2023-02-08T00:24:06;23.70;33.30
21275;DHT22;36472;52.170;20.884;2023-02-08T00:26:35;23.70;33.50
21275;DHT22;36472;52.170;20.884;2023-02-08T00:29:04;23.70;33.30
21275;DHT22;36472;52.170;20.884;2023-02-08T00:31:35;23.70;33.30
21275;DHT22;36472;52.170;20.884;2023-02-08T00:34:04;23.70;33.30
21275;DHT22;36472;52.170;20.884;2023-02-08T00:36:33;23.60;33.40
21275;DHT22;36472;52.170;20.884;2023-02-08T00:39:03;23.70;33.30
21275;DHT22;36472;52.170;20.884;2023-02-08T00:41:32;23.70;33.30
21275;DHT22;36472;52.170;20.884;2023-02-08T00:44:01;23.60;33.20
21275;DHT22;36472;52.170;20.884;2023-02-08T00:46:30;23.60;33.20
21275;DHT22;36472;52.170;20.884;2023-02-08T00:49:01;23.60;33.30
21275;DHT22;36472;52.170;20.884;2023-02-08T00:51:30;23.60;33.20
21275;DHT22;36472;52.170;20.884;2023-02-08T00:53:59;23.60;33.20
21275;DHT22;36472;52.170;20.884;2023-02-08T00:56:29;23.60;33.10
21275;DHT22;36472;52.170;20.884;2023-02-08T00:58:59;23.60;33.20
21275;DHT22;36472;52.170;20.884;2023-02-08T01:01:28;23.60;33.20
21275;DHT22;36472;52.170;20.884;2023-02-08T01:03:57;23.60;33.40
21275;DHT22;36472;52.170;20.884;2023-02-08T01:06:27;23.60;33.30
21275;DHT22;36472;52.170;20.884;2023-02-08T01:08:57;23.60;33.20
21275;DHT22;36472;52.170;20.884;2023-02-08T01:11:26;23.60;33.30
21275;DHT22;36472;52.170;20.884;2023-02-08T01:13:56;23.60;33.30
21275;DHT22;36472;52.170;20.884;2023-02-08T01:16:28;23.60;33.20
21275;DHT22;36472;52.170;20.884;2023-02-08T01:19:01;23.60;33.20
21275;DHT22;36472;52.170;20.884;2023-02-08T01:21:37;23.60;33.20
21275;DHT22;36472;52.170;20.884;2023-02-08T01:24:08;23.60;33.10
21275;DHT22;36472;52.170;20.884;2023-02-08T01:26:38;23.60;33.20
21275;DHT22;36472;52.170;20.884;2023-02-08T01:29:08;23.60;33.20
21275;DHT22;36472;52.170;20.884;2023-02-08T01:31:39;23.60;33.30
21275;DHT22;36472;52.170;20.884;2023-02-08T01:34:11;23.60;33.30
21275;DHT22;36472;52.170;20.884;2023-02-08T01:36:44;23.60;33.20
21275;DHT22;36472;52.170;20.884;2023-02-08T01:39:13;23.50;33.10
21275;DHT22;36472;52.170;20.884;2023-02-08T01:41:44;23.60;33.10
21275;DHT22;36472;52.170;20.884;2023-02-08T01:47:57;23.60;33.30
21275;DHT22;36472;52.170;20.884;2023-02-08T01:50:37;23.60;33.40
21275;DHT22;36472;52.170;20.884;2023-02-08T01:53:14;23.60;33.20
21275;DHT22;36472;52.170;20.884;2023-02-08T01:55:47;23.60;33.10
21275;DHT22;36472;52.170;20.884;2023-02-08T01:58:20;23.60;33.20
21275;DHT22;36472;52.170;20.884;2023-02-08T02:00:53;23.60;33.20
21275;DHT22;36472;52.170;20.884;2023-02-08T02:03:22;23.50;33.10
21275;DHT22;36472;52.170;20.884;2023-02-08T02:06:05;23.50;34.10
21275;DHT22;36472;52.170;20.884;2023-02-08T02:08:43;23.50;33.20
21275;DHT22;36472;52.170;20.884;2023-02-08T02:11:17;23.50;33.20
21275;DHT22;36472;52.170;20.884;2023-02-08T02:13:48;23.50;33.10
21275;DHT22;36472;52.170;20.884;2023-02-08T02:16:18;23.50;33.30
21275;DHT22;36472;52.170;20.884;2023-02-08T02:18:48;23.50;33.30
21275;DHT22;36472;52.170;20.884;2023-02-08T02:21:33;23.50;33.20
21275;DHT22;36472;52.170;20.884;2023-02-08T02:24:38;23.50;33.10
21275;DHT22;36472;52.170;20.884;2023-02-08T02:27:38;23.50;33.20
21275;DHT22;36472;52.170;20.884;2023-02-08T02:33:57;23.50;33.40
21275;DHT22;36472;52.170;20.884;2023-02-08T02:36:41;23.50;33.50
21275;DHT22;36472;52.170;20.884;2023-02-08T02:39:24;23.50;33.20
21275;DHT22;36472;52.170;20.884;2023-02-08T02:42:05;23.50;33.10
21275;DHT22;36472;52.170;20.884;2023-02-08T02:45:05;23.60;33.10
21275;DHT22;36472;52.170;20.884;2023-02-08T02:47:48;23.50;33.00
21275;DHT22;36472;52.170;20.884;2023-02-08T02:50:31;23.50;33.10
21275;DHT22;36472;52.170;20.884;2023-02-08T02:53:09;23.50;33.10
21275;DHT22;36472;52.170;20.884;2023-02-08T02:55:47;23.50;33.40
21275;DHT22;36472;52.170;20.884;2023-02-08T02:58:24;23.50;33.30
21275;DHT22;36472;52.170;20.884;2023-02-08T03:00:57;23.50;33.50
21275;DHT22;36472;52.170;20.884;2023-02-08T03:03:29;23.50;33.40
21275;DHT22;36472;52.170;20.884;2023-02-08T03:06:05;23.50;33.30
21275;DHT22;36472;52.170;20.884;2023-02-08T03:11:56;23.50;33.40
21275;DHT22;36472;52.170;20.884;2023-02-08T03:14:44;23.50;33.60
21275;DHT22;36472;52.170;20.884;2023-02-08T03:17:42;23.50;33.70
21275;DHT22;36472;52.170;20.884;2023-02-08T03:20:26;23.50;33.60
21275;DHT22;36472;52.170;20.884;2023-02-08T03:23:08;23.50;33.50
21275;DHT22;36472;52.170;20.884;2023-02-08T03:25:48;23.50;33.50
21275;DHT22;36472;52.170;20.884;2023-02-08T03:28:23;23.50;33.40
21275;DHT22;36472;52.170;20.884;2023-02-08T03:31:04;23.50;33.40
21275;DHT22;36472;52.170;20.884;2023-02-08T03:33:45;23.50;33.40
21275;DHT22;36472;52.170;20.884;2023-02-08T03:36:22;23.40;33.30
21275;DHT22;36472;52.170;20.884;2023-02-08T03:38:57;23.40;33.70
21275;DHT22;36472;52.170;20.884;2023-02-08T03:41:32;23.40;33.40
21275;DHT22;36472;52.170;20.884;2023-02-08T03:44:09;23.40;33.20
21275;DHT22;36472;52.170;20.884;2023-02-08T03:46:47;23.40;33.40
21275;DHT22;36472;52.170;20.884;2023-02-08T03:49:22;23.40;33.70
21275;DHT22;36472;52.170;20.884;2023-02-08T03:51:58;23.40;33.60
21275;DHT22;36472;52.170;20.884;2023-02-08T03:54:34;23.40;33.40
21275;DHT22;36472;52.170;20.884;2023-02-08T03:57:09;23.40;34.00
21275;DHT22;36472;52.170;20.884;2023-02-08T03:59:48;23.40;33.40
21275;DHT22;36472;52.170;20.884;2023-02-08T04:02:23;23.40;33.70
21275;DHT22;36472;52.170;20.884;2023-02-08T04:04:56;23.40;33.60
21275;DHT22;36472;52.170;20.884;2023-02-08T04:07:28;23.40;33.50
21275;DHT22;36472;52.170;20.884;2023-02-08T04:09:58;23.40;33.50
21275;DHT22;36472;52.170;20.884;2023-02-08T04:12:27;23.40;33.70
21275;DHT22;36472;52.170;20.884;2023-02-08T04:14:57;23.40;33.70
21275;DHT22;36472;52.170;20.884;2023-02-08T04:17:26;23.40;33.60
21275;DHT22;36472;52.170;20.884;2023-02-08T04:19:55;23.40;33.70
21275;DHT22;36472;52.170;20.884;2023-02-08T04:22:24;23.40;33.70
21275;DHT22;36472;52.170;20.884;2023-02-08T04:24:53;23.40;33.80
21275;DHT22;36472;52.170;20.884;2023-02-08T04:27:24;23.40;33.60
21275;DHT22;36472;52.170;20.884;2023-02-08T04:29:53;23.40;33.70
21275;DHT22;36472;52.170;20.884;2023-02-08T04:32:22;23.40;33.60
21275;DHT22;36472;52.170;20.884;2023-02-08T04:34:51;23.40;33.80
21275;DHT22;36472;52.170;20.884;2023-02-08T04:37:21;23.40;33.60
21275;DHT22;36472;52.170;20.884;2023-02-08T04:39:50;23.40;33.60
21275;DHT22;36472;52.170;20.884;2023-02-08T04:42:19;23.40;33.80
21275;DHT22;36472;52.170;20.884;2023-02-08T04:44:50;23.40;33.90
21275;DHT22;36472;52.170;20.884;2023-02-08T04:47:19;23.40;33.50
21275;DHT22;36472;52.170;20.884;2023-02-08T04:49:48;23.40;33.80
21275;DHT22;36472;52.170;20.884;2023-02-08T04:52:17;23.40;33.70
21275;DHT22;36472;52.170;20.884;2023-02-08T04:54:46;23.40;33.70
21275;DHT22;36472;52.170;20.884;2023-02-08T04:57:15;23.40;33.70
21275;DHT22;36472;52.170;20.884;2023-02-08T04:59:45;23.40;33.60
21275;DHT22;36472;52.170;20.884;2023-02-08T05:02:15;23.40;33.80
21275;DHT22;36472;52.170;20.884;2023-02-08T05:04:44;23.40;33.70
21275;DHT22;36472;52.170;20.884;2023-02-08T05:07:13;23.40;33.80
21275;DHT22;36472;52.170;20.884;2023-02-08T05:09:43;23.40;33.60
21275;DHT22;36472;52.170;20.884;2023-02-08T05:12:12;23.40;34.00
21275;DHT22;36472;52.170;20.884;2023-02-08T05:14:41;23.40;33.80
21275;DHT22;36472;52.170;20.884;2023-02-08T05:17:10;23.40;33.90
21275;DHT22;36472;52.170;20.884;2023-02-08T05:19:41;23.40;33.70
21275;DHT22;36472;52.170;20.884;2023-02-08T05:22:10;23.50;34.00
21275;DHT22;36472;52.170;20.884;2023-02-08T05:24:39;23.50;33.80
21275;DHT22;36472;52.170;20.884;2023-02-08T05:27:08;23.50;33.80
21275;DHT22;36472;52.170;20.884;2023-02-08T05:29:37;23.40;33.90
21275;DHT22;36472;52.170;20.884;2023-02-08T05:32:06;23.40;33.70
21275;DHT22;36472;52.170;20.884;2023-02-08T05:34:36;23.40;33.80
21275;DHT22;36472;52.170;20.884;2023-02-08T05:37:07;23.40;33.80
21275;DHT22;36472;52.170;20.884;2023-02-08T05:39:36;23.50;34.00
21275;DHT22;36472;52.170;20.884;2023-02-08T05:42:05;23.50;34.00
21275;DHT22;36472;52.170;20.884;2023-02-08T05:44:34;23.40;33.90
21275;DHT22;36472;52.170;20.884;2023-02-08T05:47:03;23.40;34.00
21275;DHT22;36472;52.170;20.884;2023-02-08T05:49:33;23.40;34.20
21275;DHT22;36472;52.170;20.884;2023-02-08T05:52:02;23.40;34.00
21275;DHT22;36472;52.170;20.884;2023-02-08T05:54:33;23.40;34.10
21275;DHT22;36472;52.170;20.884;2023-02-08T05:57:02;23.40;34.00
21275;DHT22;36472;52.170;20.884;2023-02-08T05:59:32;23.40;34.40
21275;DHT22;36472;52.170;20.884;2023-02-08T06:02:01;23.40;34.30
21275;DHT22;36472;52.170;20.884;2023-02-08T06:04:30;23.50;34.30
21275;DHT22;36472;52.170;20.884;2023-02-08T06:06:59;23.40;34.30
21275;DHT22;36472;52.170;20.884;2023-02-08T06:09:28;23.40;34.40
21275;DHT22;36472;52.170;20.884;2023-02-08T06:11:58;23.50;34.10
21275;DHT22;36472;52.170;20.884;2023-02-08T06:14:28;23.40;34.20
21275;DHT22;36472;52.170;20.884;2023-02-08T06:16:57;23.40;34.20
21275;DHT22;36472;52.170;20.884;2023-02-08T06:19:27;23.40;34.30
21275;DHT22;36472;52.170;20.884;2023-02-08T06:21:56;23.50;34.10
21275;DHT22;36472;52.170;20.884;2023-02-08T06:24:25;23.50;34.10
21275;DHT22;36472;52.170;20.884;2023-02-08T06:26:54;23.40;34.10
21275;DHT22;36472;52.170;20.884;2023-02-08T06:29:25;23.40;34.10
21275;DHT22;36472;52.170;20.884;2023-02-08T06:31:54;23.50;34.40
21275;DHT22;36472;52.170;20.884;2023-02-08T06:34:23;23.40;34.20
21275;DHT22;36472;52.170;20.884;2023-02-08T06:36:52;23.50;34.30
21275;DHT22;36472;52.170;20.884;2023-02-08T06:39:22;23.50;34.20
21275;DHT22;36472;52.170;20.884;2023-02-08T06:41:51;23.40;34.00
21275;DHT22;36472;52.170;20.884;2023-02-08T06:44:20;23.50;34.00
21275;DHT22;36472;52.170;20.884;2023-02-08T06:46:50;23.40;33.90
21275;DHT22;36472;52.170;20.884;2023-02-08T06:49:19;23.40;34.20
21275;DHT22;36472;52.170;20.884;2023-02-08T06:51:48;23.40;34.10
21275;DHT22;36472;52.170;20.884;2023-02-08T06:54:18;23.50;34.10
21275;DHT22;36472;52.170;20.884;2023-02-08T06:56:47;23.50;34.40
21275;DHT22;36472;52.170;20.884;2023-02-08T06:59:16;23.50;34.40
21275;DHT22;36472;52.170;20.884;2023-02-08T07:01:45;23.50;34.10
21275;DHT22;36472;52.170;20.884;2023-02-08T07:04:15;23.50;34.10
21275;DHT22;36472;52.170;20.884;2023-02-08T07:06:46;23.50;34.10
21275;DHT22;36472;52.170;20.884;2023-02-08T07:09:16;23.50;34.20
21275;DHT22;36472;52.170;20.884;2023-02-08T07:11:46;23.50;34.30
21275;DHT22;36472;52.170;20.884;2023-02-08T07:14:15;23.50;34.30
21275;DHT22;36472;52.170;20.884;2023-02-08T07:16:44;23.50;34.30
21275;DHT22;36472;52.170;20.884;2023-02-08T07:19:15;23.50;34.40
21275;DHT22;36472;52.170;20.884;2023-02-08T07:21:44;23.50;34.40
21275;DHT22;36472;52.170;20.884;2023-02-08T07:24:13;23.50;34.40
21275;DHT22;36472;52.170;20.884;2023-02-08T07:26:42;23.50;34.50
21275;DHT22;36472;52.170;20.884;2023-02-08T07:29:11;23.50;35.20
21275;DHT22;36472;52.170;20.884;2023-02-08T07:31:39;23.50;34.40
21275;DHT22;36472;52.170;20.884;2023-02-08T07:34:09;23.50;34.40
21275;DHT22;36472;52.170;20.884;2023-02-08T07:36:39;23.50;34.50
21275;DHT22;36472;52.170;20.884;2023-02-08T07:39:08;23.50;34.40
21275;DHT22;36472;52.170;20.884;2023-02-08T07:41:37;23.50;34.50
21275;DHT22;36472;52.170;20.884;2023-02-08T07:44:06;23.50;34.50
21275;DHT22;36472;52.170;20.884;2023-02-08T07:46:35;23.40;34.40
21275;DHT22;36472;52.170;20.884;2023-02-08T07:49:04;23.40;34.70
21275;DHT22;36472;52.170;20.884;2023-02-08T07:51:33;23.40;34.80
21275;DHT22;36472;52.170;20.884;2023-02-08T07:54:04;23.40;34.80
21275;DHT22;36472;52.170;20.884;2023-02-08T07:56:33;23.30;34.90
21275;DHT22;36472;52.170;20.884;2023-02-08T07:59:02;23.40;34.90
21275;DHT22;36472;52.170;20.884;2023-02-08T08:01:31;23.40;34.90
21275;DHT22;36472;52.170;20.884;2023-02-08T08:04:00;23.40;34.90
21275;DHT22;36472;52.170;20.884;2023-02-08T08:06:29;23.40;34.80
21275;DHT22;36472;52.170;20.884;2023-02-08T08:08:58;23.30;34.70
21275;DHT22;36472;52.170;20.884;2023-02-08T08:11:29;23.20;35.00
21275;DHT22;36472;52.170;20.884;2023-02-08T08:13:58;23.20;35.00
21275;DHT22;36472;52.170;20.884;2023-02-08T08:16:27;23.10;35.20
21275;DHT22;36472;52.170;20.884;2023-02-08T08:18:56;23.20;35.30
21275;DHT22;36472;52.170;20.884;2023-02-08T08:21:25;23.10;35.20
21275;DHT22;36472;52.170;20.884;2023-02-08T08:23:54;23.10;35.10
21275;DHT22;36472;52.170;20.884;2023-02-08T08:26:23;23.10;35.20
21275;DHT22;36472;52.170;20.884;2023-02-08T08:28:53;23.10;35.30
21275;DHT22;36472;52.170;20.884;2023-02-08T08:31:22;23.10;35.30
21275;DHT22;36472;52.170;20.884;2023-02-08T08:33:51;23.20;35.30
21275;DHT22;36472;52.170;20.884;2023-02-08T08:36:20;23.30;35.30
21275;DHT22;36472;52.170;20.884;2023-02-08T08:38:50;23.30;35.90
21275;DHT22;36472;52.170;20.884;2023-02-08T08:41:19;23.30;35.20
21275;DHT22;36472;52.170;20.884;2023-02-08T08:43:50;23.30;35.20
21275;DHT22;36472;52.170;20.884;2023-02-08T08:46:20;23.30;35.20
21275;DHT22;36472;52.170;20.884;2023-02-08T08:48:49;23.40;35.40
21275;DHT22;36472;52.170;20.884;2023-02-08T08:51:19;23.20;35.20
21275;DHT22;36472;52.170;20.884;2023-02-08T08:53:48;23.20;35.30
21275;DHT22;36472;52.170;20.884;2023-02-08T08:56:17;23.10;35.30
21275;DHT22;36472;52.170;20.884;2023-02-08T08:58:47;23.00;35.40
21275;DHT22;36472;52.170;20.884;2023-02-08T09:01:16;23.10;35.50
21275;DHT22;36472;52.170;20.884;2023-02-08T09:03:46;22.90;35.70
21275;DHT22;36472;52.170;20.884;2023-02-08T09:06:16;23.10;35.70
21275;DHT22;36472;52.170;20.884;2023-02-08T09:08:45;23.10;35.60
21275;DHT22;36472;52.170;20.884;2023-02-08T09:11:17;23.20;35.60
21275;DHT22;36472;52.170;20.884;2023-02-08T09:13:47;23.30;35.60
21275;DHT22;36472;52.170;20.884;2023-02-08T09:16:19;23.40;35.40
21275;DHT22;36472;52.170;20.884;2023-02-08T09:18:49;23.40;35.40
21275;DHT22;36472;52.170;20.884;2023-02-08T09:21:20;23.30;35.30
21275;DHT22;36472;52.170;20.884;2023-02-08T09:23:52;23.40;35.30
21275;DHT22;36472;52.170;20.884;2023-02-08T09:26:21;23.40;35.30
21275;DHT22;36472;52.170;20.884;2023-02-08T09:28:51;23.40;35.30
21275;DHT22;36472;52.170;20.884;2023-02-08T09:31:22;23.40;35.10
21275;DHT22;36472;52.170;20.884;2023-02-08T09:33:57;23.50;35.20
21275;DHT22;36472;52.170;20.884;2023-02-08T09:36:29;23.40;35.10
21275;DHT22;36472;52.170;20.884;2023-02-08T09:39:03;23.40;35.10
21275;DHT22;36472;52.170;20.884;2023-02-08T09:42:04;23.50;35.30
21275;DHT22;36472;52.170;20.884;2023-02-08T09:44:57;23.50;35.20
21275;DHT22;36472;52.170;20.884;2023-02-08T09:47:46;23.60;35.10
21275;DHT22;36472;52.170;20.884;2023-02-08T09:50:23;23.70;34.90
21275;DHT22;36472;52.170;20.884;2023-02-08T09:53:04;23.70;34.90
21275;DHT22;36472;52.170;20.884;2023-02-08T09:55:41;23.80;34.80
21275;DHT22;36472;52.170;20.884;2023-02-08T09:58:20;23.70;34.60
21275;DHT22;36472;52.170;20.884;2023-02-08T10:00:55;23.50;34.70
21275;DHT22;36472;52.170;20.884;2023-02-08T10:03:31;23.50;35.00
21275;DHT22;36472;52.170;20.884;2023-02-08T10:06:06;23.50;35.00
21275;DHT22;36472;52.170;20.884;2023-02-08T10:08:39;23.30;34.70
21275;DHT22;36472;52.170;20.884;2023-02-08T10:11:28;23.40;34.80
21275;DHT22;36472;52.170;20.884;2023-02-08T10:14:26;23.50;35.00
21275;DHT22;36472;52.170;20.884;2023-02-08T10:17:14;23.50;34.90
21275;DHT22;36472;52.170;20.884;2023-02-08T10:20:03;23.60;34.80
21275;DHT22;36472;52.170;20.884;2023-02-08T10:22:52;23.70;34.90
21275;DHT22;36472;52.170;20.884;2023-02-08T10:25:45;23.70;34.50
21275;DHT22;36472;52.170;20.884;2023-02-08T10:29:00;23.80;34.50
21275;DHT22;36472;52.170;20.884;2023-02-08T10:32:15;23.70;34.10
21275;DHT22;36472;52.170;20.884;2023-02-08T10:34:55;23.80;34.20
21275;DHT22;36472;52.170;20.884;2023-02-08T10:37:29;23.60;34.10
21275;DHT22;36472;52.170;20.884;2023-02-08T10:40:26;23.70;33.90
21275;DHT22;36472;52.170;20.884;2023-02-08T10:43:06;23.70;34.10
21275;DHT22;36472;52.170;20.884;2023-02-08T10:45:48;23.80;34.10
21275;DHT22;36472;52.170;20.884;2023-02-08T10:48:30;23.80;33.80
21275;DHT22;36472;52.170;20.884;2023-02-08T10:51:06;23.90;33.60
21275;DHT22;36472;52.170;20.884;2023-02-08T10:53:39;23.90;33.80
21275;DHT22;36472;52.170;20.884;2023-02-08T10:56:21;24.00;33.60
21275;DHT22;36472;52.170;20.884;2023-02-08T10:59:08;24.10;33.80
21275;DHT22;36472;52.170;20.884;2023-02-08T11:01:45;24.20;34.00
21275;DHT22;36472;52.170;20.884;2023-02-08T11:04:16;24.30;33.90
21275;DHT22;36472;52.170;20.884;2023-02-08T11:06:47;24.30;33.50
21275;DHT22;36472;52.170;20.884;2023-02-08T11:09:24;24.10;32.70
21275;DHT22;36472;52.170;20.884;2023-02-08T11:11:59;24.00;33.20
21275;DHT22;36472;52.170;20.884;2023-02-08T11:14:35;24.00;32.90
21275;DHT22;36472;52.170;20.884;2023-02-08T11:17:25;23.80;33.00
21275;DHT22;36472;52.170;20.884;2023-02-08T11:19:57;23.90;33.20
21275;DHT22;36472;52.170;20.884;2023-02-08T11:22:28;23.80;31.60
21275;DHT22;36472;52.170;20.884;2023-02-08T11:25:00;23.90;32.10
21275;DHT22;36472;52.170;20.884;2023-02-08T11:27:35;24.00;31.70
21275;DHT22;36472;52.170;20.884;2023-02-08T11:30:19;24.10;30.00
21275;DHT22;36472;52.170;20.884;2023-02-08T11:33:16;24.00;29.00
21275;DHT22;36472;52.170;20.884;2023-02-08T11:36:06;24.00;29.70
21275;DHT22;36472;52.170;20.884;2023-02-08T11:38:41;23.50;29.60
21275;DHT22;36472;52.170;20.884;2023-02-08T11:41:15;23.60;29.90
21275;DHT22;36472;52.170;20.884;2023-02-08T11:43:58;23.50;30.00
21275;DHT22;36472;52.170;20.884;2023-02-08T11:46:32;23.70;30.60
21275;DHT22;36472;52.170;20.884;2023-02-08T11:49:03;23.70;29.80
21275;DHT22;36472;52.170;20.884;2023-02-08T11:51:34;23.70;29.80
21275;DHT22;36472;52.170;20.884;2023-02-08T11:54:05;23.70;29.70
21275;DHT22;36472;52.170;20.884;2023-02-08T11:56:34;23.60;29.60
21275;DHT22;36472;52.170;20.884;2023-02-08T11:59:17;23.70;29.80
21275;DHT22;36472;52.170;20.884;2023-02-08T12:01:49;23.60;29.80
21275;DHT22;36472;52.170;20.884;2023-02-08T12:04:19;23.80;30.20
21275;DHT22;36472;52.170;20.884;2023-02-08T12:07:09;24.00;29.80
21275;DHT22;36472;52.170;20.884;2023-02-08T12:13:20;24.30;28.80
21275;DHT22;36472;52.170;20.884;2023-02-08T12:16:25;24.20;28.40
21275;DHT22;36472;52.170;20.884;2023-02-08T12:22:26;24.00;29.00
21275;DHT22;36472;52.170;20.884;2023-02-08T12:25:09;24.10;28.50
21275;DHT22;36472;52.170;20.884;2023-02-08T12:27:55;24.00;28.50
21275;DHT22;36472;52.170;20.884;2023-02-08T12:30:31;24.00;28.00
21275;DHT22;36472;52.170;20.884;2023-02-08T12:33:25;24.10;29.20
21275;DHT22;36472;52.170;20.884;2023-02-08T12:36:33;24.30;29.10
21275;DHT22;36472;52.170;20.884;2023-02-08T12:39:21;24.40;28.10
21275;DHT22;36472;52.170;20.884;2023-02-08T12:42:35;24.40;28.00
21275;DHT22;36472;52.170;20.884;2023-02-08T12:45:39;24.30;28.50
21275;DHT22;36472;52.170;20.884;2023-02-08T12:51:35;24.00;28.50
21275;DHT22;36472;52.170;20.884;2023-02-08T12:54:13;24.20;28.60
21275;DHT22;36472;52.170;20.884;2023-02-08T12:56:50;24.30;28.90
21275;DHT22;36472;52.170;20.884;2023-02-08T12:59:34;24.40;28.50
21275;DHT22;36472;52.170;20.884;2023-02-08T13:02:16;24.50;28.40
21275;DHT22;36472;52.170;20.884;2023-02-08T13:04:51;24.50;27.90
21275;DHT22;36472;52.170;20.884;2023-02-08T13:07:30;24.60;28.10
21275;DHT22;36472;52.170;20.884;2023-02-08T13:10:06;24.60;28.00
21275;DHT22;36472;52.170;20.884;2023-02-08T13:12:44;24.70;28.30
21275;DHT22;36472;52.170;20.884;2023-02-08T13:15:22;24.70;28.10
21275;DHT22;36472;52.170;20.884;2023-02-08T13:18:00;24.70;28.20
21275;DHT22;36472;52.170;20.884;2023-02-08T13:20:43;24.70;27.60
21275;DHT22;36472;52.170;20.884;2023-02-08T13:23:19;24.70;28.60
21275;DHT22;36472;52.170;20.884;2023-02-08T13:25:54;24.60;27.50
21275;DHT22;36472;52.170;20.884;2023-02-08T13:28:26;24.60;28.00
21275;DHT22;36472;52.170;20.884;2023-02-08T13:30:59;24.70;28.60
21275;DHT22;36472;52.170;20.884;2023-02-08T13:33:40;24.70;28.50
21275;DHT22;36472;52.170;20.884;2023-02-08T13:36:31;24.70;28.00
21275;DHT22;36472;52.170;20.884;2023-02-08T13:39:04;24.80;28.70
21275;DHT22;36472;52.170;20.884;2023-02-08T13:41:35;24.80;28.30
21275;DHT22;36472;52.170;20.884;2023-02-08T13:44:06;24.80;28.30
21275;DHT22;36472;52.170;20.884;2023-02-08T13:46:47;24.80;27.70
21275;DHT22;36472;52.170;20.884;2023-02-08T13:49:40;24.70;27.90
21275;DHT22;36472;52.170;20.884;2023-02-08T13:52:47;24.60;27.70
21275;DHT22;36472;52.170;20.884;2023-02-08T13:55:53;24.60;28.20
21275;DHT22;36472;52.170;20.884;2023-02-08T14:01:28;24.60;28.40
21275;DHT22;36472;52.170;20.884;2023-02-08T14:07:16;24.40;27.90
21275;DHT22;36472;52.170;20.884;2023-02-08T14:10:03;24.40;28.00
21275;DHT22;36472;52.170;20.884;2023-02-08T14:12:41;24.40;28.10
21275;DHT22;36472;52.170;20.884;2023-02-08T14:15:35;24.20;27.80
21275;DHT22;36472;52.170;20.884;2023-02-08T14:18:22;24.20;28.60
21275;DHT22;36472;52.170;20.884;2023-02-08T14:21:02;24.30;28.50
21275;DHT22;36472;52.170;20.884;2023-02-08T14:23:36;24.30;28.10
21275;DHT22;36472;52.170;20.884;2023-02-08T14:26:17;24.30;28.20
21275;DHT22;36472;52.170;20.884;2023-02-08T14:28:53;24.40;28.40
21275;DHT22;36472;52.170;20.884;2023-02-08T14:31:36;24.40;28.90
21275;DHT22;36472;52.170;20.884;2023-02-08T14:34:26;24.40;28.00
21275;DHT22;36472;52.170;20.884;2023-02-08T14:37:04;24.50;28.00
21275;DHT22;36472;52.170;20.884;2023-02-08T14:43:33;24.50;29.30
21275;DHT22;36472;52.170;20.884;2023-02-08T14:46:41;24.50;28.80
21275;DHT22;36472;52.170;20.884;2023-02-08T14:49:12;24.50;28.50
21275;DHT22;36472;52.170;20.884;2023-02-08T14:51:48;24.50;29.10
21275;DHT22;36472;52.170;20.884;2023-02-08T14:54:23;24.50;28.90
21275;DHT22;36472;52.170;20.884;2023-02-08T14:57:02;24.50;29.00
21275;DHT22;36472;52.170;20.884;2023-02-08T14:59:36;24.50;29.10
21275;DHT22;36472;52.170;20.884;2023-02-08T15:02:13;24.40;29.20
21275;DHT22;36472;52.170;20.884;2023-02-08T15:04:48;24.40;28.90
21275;DHT22;36472;52.170;20.884;2023-02-08T15:07:23;24.30;29.10
21275;DHT22;36472;52.170;20.884;2023-02-08T15:10:01;24.30;29.30
21275;DHT22;36472;52.170;20.884;2023-02-08T15:12:33;24.30;29.30
21275;DHT22;36472;52.170;20.884;2023-02-08T15:15:21;24.20;29.50
21275;DHT22;36472;52.170;20.884;2023-02-08T15:17:54;24.10;29.50
21275;DHT22;36472;52.170;20.884;2023-02-08T15:20:25;24.10;29.50
21275;DHT22;36472;52.170;20.884;2023-02-08T15:22:58;24.00;29.10
21275;DHT22;36472;52.170;20.884;2023-02-08T15:25:30;24.00;29.60
21275;DHT22;36472;52.170;20.884;2023-02-08T15:28:03;23.90;29.60
21275;DHT22;36472;52.170;20.884;2023-02-08T15:30:52;23.90;29.40
21275;DHT22;36472;52.170;20.884;2023-02-08T15:33:24;23.80;29.70
21275;DHT22;36472;52.170;20.884;2023-02-08T15:35:59;23.70;29.80
21275;DHT22;36472;52.170;20.884;2023-02-08T15:38:35;23.70;29.60
21275;DHT22;36472;52.170;20.884;2023-02-08T15:41:08;23.70;29.60
21275;DHT22;36472;52.170;20.884;2023-02-08T15:43:40;23.60;29.60
21275;DHT22;36472;52.170;20.884;2023-02-08T15:46:19;23.50;29.70
21275;DHT22;36472;52.170;20.884;2023-02-08T15:48:52;23.50;30.10
21275;DHT22;36472;52.170;20.884;2023-02-08T15:51:23;23.50;29.80
21275;DHT22;36472;52.170;20.884;2023-02-08T15:53:54;23.40;29.70
21275;DHT22;36472;52.170;20.884;2023-02-08T15:56:27;23.40;29.90
21275;DHT22;36472;52.170;20.884;2023-02-08T15:59:06;23.40;29.80
21275;DHT22;36472;52.170;20.884;2023-02-08T16:01:51;23.30;29.80
21275;DHT22;36472;52.170;20.884;2023-02-08T16:04:22;23.20;29.90
21275;DHT22;36472;52.170;20.884;2023-02-08T16:06:55;23.20;30.00
21275;DHT22;36472;52.170;20.884;2023-02-08T16:09:27;23.20;30.00
21275;DHT22;36472;52.170;20.884;2023-02-08T16:11:59;23.20;30.40
21275;DHT22;36472;52.170;20.884;2023-02-08T16:14:28;23.10;30.00
21275;DHT22;36472;52.170;20.884;2023-02-08T16:17:34;23.10;30.00
21275;DHT22;36472;52.170;20.884;2023-02-08T16:20:22;23.10;30.90
21275;DHT22;36472;52.170;20.884;2023-02-08T16:22:59;23.10;30.80
21275;DHT22;36472;52.170;20.884;2023-02-08T16:25:36;23.00;30.60
21275;DHT22;36472;52.170;20.884;2023-02-08T16:28:25;23.00;30.20
21275;DHT22;36472;52.170;20.884;2023-02-08T16:30:56;23.00;30.20
21275;DHT22;36472;52.170;20.884;2023-02-08T16:33:29;22.90;30.80
21275;DHT22;36472;52.170;20.884;2023-02-08T16:36:01;22.90;30.90